createdAt,value
2023-02-14T00:02:19.409Z,3.90
2023-02-14T00:04:45.937Z,3.86
2023-02-14T00:07:12.754Z,3.83
2023-02-14T00:09:39.232Z,3.80
2023-02-14T00:12:06.236Z,3.78
2023-02-14T00:14:32.958Z,3.72
2023-02-14T00:16:59.898Z,3.71
2023-02-14T00:19:26.587Z,3.67
2023-02-14T00:21:53.142Z,3.64
2023-02-14T00:24:25.225Z,3.53
2023-02-14T00:26:52.736Z,3.49
2023-02-14T00:29:31.047Z,3.47
2023-02-14T00:31:58.120Z,3.41
2023-02-14T00:34:24.929Z,3.34
2023-02-14T00:36:51.628Z,3.28
2023-02-14T00:39:19.584Z,3.22
2023-02-14T00:41:46.137Z,3.14
2023-02-14T00:44:13.655Z,3.08
2023-02-14T00:46:40.687Z,3.01
2023-02-14T00:49:07.241Z,2.94
2023-02-14T00:51:33.760Z,2.88
2023-02-14T00:54:01.947Z,2.81
2023-02-14T00:56:31.021Z,2.75
2023-02-14T00:58:57.499Z,2.70
2023-02-14T01:01:24.213Z,2.64
2023-02-14T01:03:50.861Z,2.58
2023-02-14T01:06:18.740Z,2.51
2023-02-14T01:08:45.343Z,2.45
2023-02-14T01:11:23.038Z,2.38
2023-02-14T01:13:51.342Z,2.34
2023-02-14T01:16:21.565Z,2.28
2023-02-14T01:18:49.059Z,2.24
2023-02-14T01:21:45.364Z,2.17
2023-02-14T01:24:12.410Z,2.13
2023-02-14T01:26:41.460Z,2.08
2023-02-14T01:29:09.128Z,2.02
2023-02-14T01:31:36.132Z,1.96
2023-02-14T01:34:03.057Z,1.94
2023-02-14T01:36:38.436Z,1.85
2023-02-14T01:39:07.833Z,1.81
2023-02-14T01:41:37.510Z,1.84
2023-02-14T01:44:07.387Z,1.76
2023-02-14T01:46:36.112Z,1.73
2023-02-14T01:49:25.782Z,1.74
2023-02-14T01:52:14.226Z,1.68
2023-02-14T01:54:49.738Z,1.62
2023-02-14T01:57:20.301Z,1.51
2023-02-14T01:59:52.716Z,1.52
2023-02-14T02:02:19.642Z,1.47
2023-02-14T02:04:46.648Z,1.45
2023-02-14T02:07:19.383Z,1.35
2023-02-14T02:10:00.194Z,1.37
2023-02-14T02:12:29.248Z,1.34
2023-02-14T02:14:58.852Z,1.33
2023-02-14T02:17:38.200Z,1.30
2023-02-14T02:20:48.126Z,1.27
2023-02-14T02:23:23.440Z,1.23
2023-02-14T02:26:23.735Z,1.20
2023-02-14T02:28:59.406Z,1.19
2023-02-14T02:31:45.982Z,1.16
2023-02-14T02:34:18.516Z,1.14
2023-02-14T02:36:56.878Z,1.12
2023-02-14T02:39:41.459Z,1.10
2023-02-14T02:42:33.238Z,1.10
2023-02-14T02:45:33.698Z,1.07
2023-02-14T02:48:17.722Z,1.07
2023-02-14T02:50:49.332Z,1.02
2023-02-14T02:53:18.810Z,1.05
2023-02-14T02:56:04.666Z,1.03
2023-02-14T02:58:36.837Z,1.01
2023-02-14T03:01:10.211Z,1.01
2023-02-14T03:03:39.453Z,1.00
2023-02-14T03:06:06.287Z,0.99
2023-02-14T03:08:33.052Z,0.98
2023-02-14T03:11:01.979Z,0.96
2023-02-14T03:13:41.920Z,0.95
2023-02-14T03:16:33.167Z,0.94
2023-02-14T03:19:21.695Z,0.92
2023-02-14T03:21:56.478Z,0.92
2023-02-14T03:24:50.880Z,0.89
2023-02-14T03:27:26.997Z,0.90
2023-02-14T03:30:02.652Z,0.85
2023-02-14T03:32:38.225Z,0.87
2023-02-14T03:35:23.642Z,0.86
2023-02-14T03:38:09.024Z,0.86
2023-02-14T03:40:43.000Z,0.85
2023-02-14T03:43:18.752Z,0.87
2023-02-14T03:46:04.238Z,0.86
2023-02-14T03:48:33.378Z,0.84
2023-02-14T03:51:01.403Z,0.88
2023-02-14T03:53:32.742Z,0.91
2023-02-14T03:56:12.720Z,0.91
2023-02-14T03:58:47.256Z,0.90
2023-02-14T04:01:21.283Z,0.91
2023-02-14T04:03:48.948Z,0.93
2023-02-14T04:06:18.284Z,0.89
2023-02-14T04:08:45.126Z,0.96
2023-02-14T04:11:11.756Z,1.02
2023-02-14T04:13:38.677Z,1.06
2023-02-14T04:16:05.809Z,1.11
2023-02-14T04:18:32.885Z,1.12
2023-02-14T04:21:00.245Z,1.18
2023-02-14T04:23:26.965Z,1.20
2023-02-14T04:25:53.499Z,1.23
2023-02-14T04:28:20.033Z,1.24
2023-02-14T04:30:46.675Z,1.29
2023-02-14T04:33:13.417Z,1.33
2023-02-14T04:35:39.913Z,1.37
2023-02-14T04:38:06.467Z,1.40
2023-02-14T04:40:33.007Z,1.42
2023-02-14T04:42:59.551Z,1.45
2023-02-14T04:45:26.012Z,1.51
2023-02-14T04:47:52.557Z,1.54
2023-02-14T04:50:19.076Z,1.57
2023-02-14T04:52:45.560Z,1.59
2023-02-14T04:55:12.024Z,1.63
2023-02-14T04:57:38.586Z,1.67
2023-02-14T05:00:05.916Z,1.68
2023-02-14T05:02:32.426Z,1.71
2023-02-14T05:04:58.910Z,1.73
2023-02-14T05:07:25.453Z,1.75
2023-02-14T05:09:51.986Z,1.76
2023-02-14T05:12:18.447Z,1.78
2023-02-14T05:14:45.029Z,1.80
2023-02-14T05:17:11.602Z,1.80
2023-02-14T05:19:38.065Z,1.79
2023-02-14T05:22:04.661Z,1.80
2023-02-14T05:24:31.221Z,1.78
2023-02-14T05:26:57.733Z,1.75
2023-02-14T05:29:24.219Z,1.78
2023-02-14T05:31:50.841Z,1.76
2023-02-14T05:34:17.301Z,1.75
2023-02-14T05:36:43.886Z,1.73
2023-02-14T05:39:10.331Z,1.72
2023-02-14T05:44:03.233Z,1.69
2023-02-14T05:46:29.716Z,1.65
2023-02-14T05:48:56.329Z,1.62
2023-02-14T05:51:22.853Z,1.59
2023-02-14T05:53:49.332Z,1.56
2023-02-14T05:56:15.832Z,1.55
2023-02-14T05:58:42.332Z,1.51
2023-02-14T06:01:08.833Z,1.48
2023-02-14T06:03:35.347Z,1.45
2023-02-14T06:06:01.849Z,1.43
2023-02-14T06:08:28.365Z,1.40
2023-02-14T06:10:54.874Z,1.36
2023-02-14T06:13:21.344Z,1.33
2023-02-14T06:15:47.793Z,1.31
2023-02-14T06:18:14.266Z,1.29
2023-02-14T06:20:40.737Z,1.26
2023-02-14T06:23:07.270Z,1.22
2023-02-14T06:25:33.761Z,1.20
2023-02-14T06:28:00.390Z,1.19
2023-02-14T06:30:27.715Z,1.16
2023-02-14T06:32:54.385Z,1.18
2023-02-14T06:35:20.904Z,1.17
2023-02-14T06:37:47.401Z,1.17
2023-02-14T06:40:14.334Z,1.18
2023-02-14T06:42:41.069Z,1.20
2023-02-14T06:45:08.106Z,1.26
2023-02-14T06:47:35.220Z,1.32
2023-02-14T06:50:02.673Z,1.38
2023-02-14T06:52:29.144Z,1.44
2023-02-14T06:54:55.681Z,1.49
2023-02-14T06:57:22.139Z,1.54
2023-02-14T06:59:48.612Z,1.56
2023-02-14T07:02:15.161Z,1.62
2023-02-14T07:04:41.674Z,1.65
2023-02-14T07:07:08.149Z,1.67
2023-02-14T07:09:34.713Z,1.70
2023-02-14T07:12:01.171Z,1.70
2023-02-14T07:14:27.690Z,1.72
2023-02-14T07:16:54.177Z,1.71
2023-02-14T07:19:20.653Z,1.71
2023-02-14T07:21:47.075Z,1.70
2023-02-14T07:24:13.571Z,1.71
2023-02-14T07:26:40.076Z,1.71
2023-02-14T07:29:06.553Z,1.71
2023-02-14T07:31:33.102Z,1.74
2023-02-14T07:33:59.708Z,1.76
2023-02-14T07:36:26.287Z,1.79
2023-02-14T07:38:52.799Z,1.82
2023-02-14T07:41:19.383Z,1.85
2023-02-14T07:43:45.853Z,1.88
2023-02-14T07:46:12.336Z,1.91
2023-02-14T07:48:38.840Z,1.95
2023-02-14T07:51:05.368Z,1.98
2023-02-14T07:53:31.933Z,2.01
2023-02-14T07:55:58.537Z,2.04
2023-02-14T07:58:25.011Z,2.06
2023-02-14T08:00:51.486Z,2.09
2023-02-14T08:03:18.282Z,2.12
2023-02-14T08:05:45.176Z,2.14
2023-02-14T08:08:11.630Z,2.20
2023-02-14T08:10:38.140Z,2.22
2023-02-14T08:13:04.643Z,2.26
2023-02-14T08:15:35.535Z,2.29
2023-02-14T08:18:02.035Z,2.34
2023-02-14T08:20:28.544Z,2.40
2023-02-14T08:22:55.087Z,2.45
2023-02-14T08:25:21.522Z,2.53
2023-02-14T08:27:48.009Z,2.59
2023-02-14T08:30:15.207Z,2.67
2023-02-14T08:32:41.889Z,2.75
2023-02-14T08:35:09.709Z,2.82
2023-02-14T08:37:36.232Z,2.92
2023-02-14T08:40:03.040Z,3.01
2023-02-14T08:42:29.557Z,3.08
2023-02-14T08:44:56.057Z,3.20
2023-02-14T08:47:22.534Z,3.32
2023-02-14T08:49:49.023Z,3.43
2023-02-14T08:52:16.030Z,3.57
2023-02-14T08:54:42.746Z,3.70
2023-02-14T08:57:09.288Z,3.85
2023-02-14T08:59:35.810Z,4.00
2023-02-14T09:02:02.303Z,4.25
2023-02-14T09:04:28.876Z,4.57
2023-02-14T09:06:55.417Z,4.94
2023-02-14T09:09:21.895Z,5.35
2023-02-14T09:11:48.393Z,5.79
2023-02-14T09:14:14.920Z,6.34
2023-02-14T09:16:41.487Z,6.80
2023-02-14T09:19:07.976Z,7.22
2023-02-14T09:21:34.490Z,7.56
2023-02-14T09:24:00.965Z,7.92
2023-02-14T09:26:27.440Z,8.30
2023-02-14T09:28:53.958Z,8.70
2023-02-14T09:31:22.952Z,9.08
2023-02-14T09:33:50.944Z,9.47
2023-02-14T09:36:17.620Z,9.84
2023-02-14T09:38:44.116Z,10.22
2023-02-14T09:41:36.174Z,10.64
2023-02-14T09:44:07.858Z,10.99
2023-02-14T09:46:42.824Z,11.25
2023-02-14T09:49:15.508Z,11.45
2023-02-14T09:51:49.105Z,11.67
2023-02-14T09:54:26.912Z,11.84
2023-02-14T09:57:02.484Z,12.00
2023-02-14T09:59:52.747Z,12.13
2023-02-14T10:02:19.435Z,12.29
2023-02-14T10:05:07.338Z,12.42
2023-02-14T10:07:48.222Z,12.46
2023-02-14T10:11:02.541Z,12.80
2023-02-14T10:13:44.416Z,13.18
2023-02-14T10:16:28.164Z,13.48
2023-02-14T10:19:02.532Z,13.78
2023-02-14T10:21:36.204Z,14.10
2023-02-14T10:24:16.370Z,14.38
2023-02-14T10:26:42.898Z,14.56
2023-02-14T10:29:14.522Z,14.76
2023-02-14T10:31:56.805Z,15.04
2023-02-14T10:34:47.161Z,15.20
2023-02-14T10:37:13.617Z,15.41
2023-02-14T10:39:58.413Z,15.58
2023-02-14T10:42:43.383Z,15.60
2023-02-14T10:45:34.363Z,15.63
2023-02-14T10:48:12.841Z,15.49
2023-02-14T10:50:44.810Z,15.40
2023-02-14T10:53:11.235Z,15.30
2023-02-14T10:55:45.334Z,15.25
2023-02-14T10:58:16.065Z,15.07
2023-02-14T11:01:04.064Z,14.85
2023-02-14T11:03:33.416Z,14.69
2023-02-14T11:06:00.047Z,14.75
2023-02-14T11:08:52.847Z,14.78
2023-02-14T11:11:27.377Z,14.66
2023-02-14T11:13:54.046Z,14.56
2023-02-14T11:16:32.805Z,14.40
2023-02-14T11:19:14.554Z,14.20
2023-02-14T11:21:45.997Z,13.94
2023-02-14T11:24:30.801Z,13.71
2023-02-14T11:27:02.217Z,13.49
2023-02-14T11:29:35.235Z,13.32
2023-02-14T11:32:14.250Z,13.13
2023-02-14T11:34:45.344Z,12.95
2023-02-14T11:37:28.843Z,12.75
2023-02-14T11:39:59.479Z,12.61
2023-02-14T11:42:46.543Z,12.40
2023-02-14T11:45:26.300Z,12.32
2023-02-14T11:48:22.030Z,12.20
2023-02-14T11:51:00.783Z,12.03
2023-02-14T11:53:29.803Z,11.96
2023-02-14T11:55:58.656Z,11.83
2023-02-14T11:58:36.260Z,11.78
2023-02-14T12:01:03.559Z,11.78
2023-02-14T12:03:39.343Z,11.74
2023-02-14T12:06:06.463Z,11.85
2023-02-14T12:08:33.006Z,11.86
2023-02-14T12:11:04.346Z,11.84
2023-02-14T12:13:32.502Z,11.94
2023-02-14T12:15:59.354Z,11.99
2023-02-14T12:18:31.646Z,12.03
2023-02-14T12:21:22.210Z,12.02
2023-02-14T12:23:48.621Z,12.05
2023-02-14T12:26:28.481Z,12.04
2023-02-14T12:29:19.709Z,11.94
2023-02-14T12:31:47.520Z,11.89
2023-02-14T12:34:16.637Z,11.84
2023-02-14T12:37:05.849Z,11.81
2023-02-14T12:39:37.474Z,11.84
2023-02-14T12:42:51.274Z,11.86
2023-02-14T12:45:30.354Z,11.85
2023-02-14T12:48:16.171Z,11.94
2023-02-14T12:51:07.625Z,12.00
2023-02-14T12:53:42.338Z,12.10
2023-02-14T12:56:31.900Z,12.19
2023-02-14T12:59:04.541Z,12.27
2023-02-14T13:01:58.932Z,12.37
2023-02-14T13:04:58.617Z,12.43
2023-02-14T13:07:29.131Z,12.58
2023-02-14T13:10:23.215Z,12.73
2023-02-14T13:13:15.307Z,12.92
2023-02-14T13:15:53.152Z,13.04
2023-02-14T13:18:54.450Z,13.24
2023-02-14T13:21:26.250Z,13.40
2023-02-14T13:23:56.930Z,13.58
2023-02-14T13:26:35.353Z,13.71
2023-02-14T13:29:10.209Z,13.89
2023-02-14T13:31:38.388Z,14.02
2023-02-14T13:34:28.232Z,14.12
2023-02-14T13:36:58.005Z,14.18
2023-02-14T13:39:37.913Z,14.33
2023-02-14T13:42:06.312Z,14.43
2023-02-14T13:44:38.750Z,14.40
2023-02-14T13:47:07.666Z,14.37
2023-02-14T13:49:39.453Z,14.31
2023-02-14T13:52:06.516Z,14.35
2023-02-14T13:54:48.660Z,14.41
2023-02-14T13:57:32.279Z,14.44
2023-02-14T14:00:22.619Z,14.49
2023-02-14T14:02:54.045Z,14.57
2023-02-14T14:05:29.701Z,14.62
2023-02-14T14:08:22.002Z,14.69
2023-02-14T14:10:52.516Z,14.72
2023-02-14T14:13:40.660Z,14.77
2023-02-14T14:16:25.118Z,14.78
2023-02-14T14:18:53.959Z,14.84
2023-02-14T14:21:35.099Z,14.92
2023-02-14T14:24:30.483Z,15.10
2023-02-14T14:27:03.501Z,15.27
2023-02-14T14:29:44.996Z,15.40
2023-02-14T14:32:12.559Z,15.54
2023-02-14T14:34:49.281Z,15.69
2023-02-14T14:37:18.962Z,15.82
2023-02-14T14:40:08.421Z,15.91
2023-02-14T14:42:40.177Z,15.97
2023-02-14T14:45:19.053Z,16.10
2023-02-14T14:47:46.530Z,16.16
2023-02-14T14:50:21.783Z,16.23
2023-02-14T14:52:51.173Z,16.34
2023-02-14T14:55:24.689Z,16.43
2023-02-14T14:57:56.509Z,16.60
2023-02-14T15:00:33.982Z,16.73
2023-02-14T15:03:06.028Z,16.86
2023-02-14T15:05:36.478Z,16.92
2023-02-14T15:08:27.760Z,17.04
2023-02-14T15:10:58.716Z,17.18
2023-02-14T15:13:37.057Z,17.36
2023-02-14T15:16:04.027Z,17.53
2023-02-14T15:18:30.682Z,17.61
2023-02-14T15:20:57.467Z,17.69
2023-02-14T15:23:24.901Z,17.79
2023-02-14T15:25:52.185Z,17.86
2023-02-14T15:28:33.503Z,17.84
2023-02-14T15:31:03.713Z,17.84
2023-02-14T15:33:32.181Z,17.82
2023-02-14T15:36:04.132Z,17.75
2023-02-14T15:38:31.809Z,17.67
2023-02-14T15:41:00.112Z,17.54
2023-02-14T15:43:36.379Z,17.33
2023-02-14T15:46:19.852Z,17.14
2023-02-14T15:48:47.202Z,17.05
2023-02-14T15:51:21.528Z,16.87
2023-02-14T15:53:55.912Z,16.63
2023-02-14T15:56:26.202Z,16.33
2023-02-14T15:58:59.777Z,16.06
2023-02-14T16:01:26.297Z,15.90
2023-02-14T16:03:57.287Z,15.78
2023-02-14T16:06:32.920Z,15.61
2023-02-14T16:08:59.502Z,15.43
2023-02-14T16:11:37.363Z,15.18
2023-02-14T16:14:26.784Z,15.00
2023-02-14T16:17:03.763Z,14.78
2023-02-14T16:19:42.471Z,14.57
2023-02-14T16:22:23.956Z,14.36
2023-02-14T16:24:50.465Z,14.22
2023-02-14T16:27:16.994Z,14.07
2023-02-14T16:29:43.472Z,13.90
2023-02-14T16:32:28.021Z,13.72
2023-02-14T16:34:54.633Z,13.60
2023-02-14T16:37:30.086Z,13.40
2023-02-14T16:39:56.790Z,13.33
2023-02-14T16:42:24.003Z,13.20
2023-02-14T16:44:50.910Z,13.04
2023-02-14T16:47:19.741Z,12.82
2023-02-14T16:49:46.808Z,12.68
2023-02-14T16:52:16.728Z,12.45
2023-02-14T16:54:43.610Z,12.30
2023-02-14T16:57:28.972Z,12.07
2023-02-14T16:59:56.838Z,11.97
2023-02-14T17:02:23.976Z,11.82
2023-02-14T17:04:50.498Z,11.67
2023-02-14T17:07:17.101Z,11.52
2023-02-14T17:09:50.083Z,11.35
2023-02-14T17:12:20.732Z,11.21
2023-02-14T17:14:51.429Z,11.02
2023-02-14T17:17:18.094Z,10.82
2023-02-14T17:19:44.735Z,10.65
2023-02-14T17:22:14.091Z,10.46
2023-02-14T17:24:41.554Z,10.33
2023-02-14T17:27:08.087Z,10.20
2023-02-14T17:29:34.614Z,10.05
2023-02-14T17:32:01.250Z,9.90
2023-02-14T17:34:32.196Z,9.74
2023-02-14T17:36:58.832Z,9.60
2023-02-14T17:39:25.444Z,9.47
2023-02-14T17:41:51.943Z,9.35
2023-02-14T17:44:18.433Z,9.26
2023-02-14T17:46:44.921Z,9.15
2023-02-14T17:49:11.446Z,9.04
2023-02-14T17:51:37.953Z,8.91
2023-02-14T17:54:04.435Z,8.81
2023-02-14T17:56:30.922Z,8.70
2023-02-14T17:58:57.488Z,8.60
2023-02-14T18:01:27.084Z,8.44
2023-02-14T18:03:54.537Z,8.41
2023-02-14T18:06:21.608Z,8.32
2023-02-14T18:08:49.797Z,8.22
2023-02-14T18:11:18.316Z,8.07
2023-02-14T18:13:44.866Z,8.03
2023-02-14T18:16:15.497Z,7.95
2023-02-14T18:18:42.102Z,7.90
2023-02-14T18:21:11.887Z,7.76
2023-02-14T18:23:38.901Z,7.75
2023-02-14T18:26:09.681Z,7.67
2023-02-14T18:28:36.750Z,7.61
2023-02-14T18:31:15.465Z,7.52
2023-02-14T18:33:42.836Z,7.47
2023-02-14T18:36:12.149Z,7.34
2023-02-14T18:38:39.930Z,7.34
2023-02-14T18:41:08.338Z,7.27
2023-02-14T18:43:35.978Z,7.22
2023-02-14T18:46:07.690Z,7.16
2023-02-14T18:48:34.378Z,7.10
2023-02-14T18:51:15.869Z,6.97
2023-02-14T18:53:43.862Z,6.96
2023-02-14T18:56:16.316Z,6.89
2023-02-14T18:58:46.466Z,6.79
2023-02-14T19:01:19.936Z,6.76
2023-02-14T19:03:46.963Z,6.69
2023-02-14T19:06:13.436Z,6.63
2023-02-14T19:08:41.091Z,6.52
2023-02-14T19:11:13.172Z,6.46
2023-02-14T19:13:44.297Z,6.44
2023-02-14T19:16:12.890Z,6.37
2023-02-14T19:18:39.947Z,6.31
2023-02-14T19:21:11.331Z,6.24
2023-02-14T19:23:38.052Z,6.21
2023-02-14T19:26:19.580Z,6.16
2023-02-14T19:28:47.327Z,6.12
2023-02-14T19:31:14.357Z,6.06
2023-02-14T19:33:43.754Z,5.94
2023-02-14T19:36:16.164Z,5.94
2023-02-14T19:38:45.057Z,5.88
2023-02-14T19:41:21.474Z,5.75
2023-02-14T19:43:48.880Z,5.75
2023-02-14T19:46:17.647Z,5.69
2023-02-14T19:48:45.062Z,5.63
2023-02-14T19:51:16.801Z,5.56
2023-02-14T19:53:43.353Z,5.53
2023-02-14T19:56:10.709Z,5.49
2023-02-14T19:58:37.213Z,5.44
2023-02-14T20:01:04.742Z,5.40
2023-02-14T20:03:32.127Z,5.31
2023-02-14T20:05:58.659Z,5.33
2023-02-14T20:08:25.125Z,5.29
2023-02-14T20:10:51.620Z,5.26
2023-02-14T20:13:18.103Z,5.24
2023-02-14T20:15:44.566Z,5.21
2023-02-14T20:18:11.046Z,5.18
2023-02-14T20:20:37.514Z,5.13
2023-02-14T20:23:03.985Z,5.10
2023-02-14T20:25:30.439Z,5.07
2023-02-14T20:27:56.952Z,5.03
2023-02-14T20:30:23.470Z,5.00
2023-02-14T20:32:50.843Z,4.96
2023-02-14T20:35:17.309Z,4.92
2023-02-14T20:37:43.766Z,4.89
2023-02-14T20:40:10.863Z,4.86
2023-02-14T20:42:37.337Z,4.82
2023-02-14T20:45:03.966Z,4.79
2023-02-14T20:47:30.447Z,4.76
2023-02-14T20:49:56.925Z,4.71
2023-02-14T20:52:23.415Z,4.69
2023-02-14T20:54:49.865Z,4.66
2023-02-14T20:57:16.329Z,4.64
2023-02-14T20:59:42.879Z,4.61
2023-02-14T21:02:09.798Z,4.57
2023-02-14T21:04:36.518Z,4.54
2023-02-14T21:07:03.325Z,4.51
2023-02-14T21:09:29.772Z,4.48
2023-02-14T21:11:56.253Z,4.45
2023-02-14T21:14:22.709Z,4.44
2023-02-14T21:16:49.184Z,4.42
2023-02-14T21:19:15.729Z,4.37
2023-02-14T21:21:42.256Z,4.35
2023-02-14T21:24:15.773Z,4.32
2023-02-14T21:26:43.332Z,4.30
2023-02-14T21:29:10.197Z,4.27
2023-02-14T21:31:38.400Z,4.24
2023-02-14T21:34:05.282Z,4.23
2023-02-14T21:36:33.597Z,4.17
2023-02-14T21:39:00.261Z,4.17
2023-02-14T21:41:31.084Z,4.10
2023-02-14T21:43:59.065Z,4.13
2023-02-14T21:46:28.128Z,4.08
2023-02-14T21:48:56.023Z,4.08
2023-02-14T21:51:22.983Z,4.07
2023-02-14T21:53:50.012Z,4.04
2023-02-14T21:56:20.228Z,3.98
2023-02-14T21:58:48.581Z,4.04
2023-02-14T22:01:23.215Z,4.01
2023-02-14T22:03:51.019Z,4.01
2023-02-14T22:06:17.576Z,4.00
2023-02-14T22:08:44.496Z,3.99
2023-02-14T22:11:13.542Z,3.93
2023-02-14T22:13:40.692Z,4.00
2023-02-14T22:16:13.375Z,3.97
2023-02-14T22:18:40.279Z,4.04
2023-02-14T22:21:13.129Z,4.03
2023-02-14T22:23:40.178Z,4.12
2023-02-14T22:26:14.482Z,4.14
2023-02-14T22:28:42.233Z,4.17
2023-02-14T22:31:09.419Z,4.20
2023-02-14T22:33:37.776Z,4.22
2023-02-14T22:36:05.348Z,4.24
2023-02-14T22:38:32.889Z,4.27
2023-02-14T22:41:15.437Z,4.27
2023-02-14T22:43:43.517Z,4.28
2023-02-14T22:46:18.848Z,4.29
2023-02-14T22:48:46.521Z,4.30
2023-02-14T22:51:24.862Z,4.28
2023-02-14T22:53:54.597Z,4.23
2023-02-14T22:56:25.084Z,4.22
2023-02-14T22:58:56.310Z,4.15
2023-02-14T23:01:23.697Z,4.09
2023-02-14T23:03:53.966Z,4.00
2023-02-14T23:06:20.582Z,3.93
2023-02-14T23:08:47.841Z,3.85
2023-02-14T23:11:17.621Z,3.71
2023-02-14T23:13:44.357Z,3.71
2023-02-14T23:16:10.842Z,3.65
2023-02-14T23:18:37.350Z,3.59
2023-02-14T23:21:03.820Z,3.54
2023-02-14T23:23:31.842Z,3.47
2023-02-14T23:25:59.681Z,3.44
2023-02-14T23:28:26.914Z,3.39
2023-02-14T23:30:53.380Z,3.33
2023-02-14T23:33:20.568Z,3.27
2023-02-14T23:35:47.015Z,3.23
2023-02-14T23:38:13.537Z,3.18
2023-02-14T23:40:39.966Z,3.13
2023-02-14T23:43:06.421Z,3.08
2023-02-14T23:45:32.920Z,3.04
2023-02-14T23:48:04.322Z,3.01
2023-02-14T23:50:31.091Z,2.99
2023-02-14T23:52:58.282Z,2.95
2023-02-14T23:55:24.849Z,2.92
2023-02-14T23:57:51.302Z,2.87
